METAR stanice u blizini

 

LYBE - Beograd / Surčin, Srbija
Ažurirano: 26/10/2020 01:30
Patches of fog, Delimično oblačno
Patches of fog, Delimično oblačno
 Pravac vetra I
Vetar: I 7 km/h
Temperatura: 11°C
Tačka rose: 11°C
Vlažnost: 100%
Pritisak: 1014 hPa
Pregled: Patches of Fog
Oblaci: Partly Cloudy
Vidljivost: 1 km
2020/10/26 00:30 LYBE 260030Z 10004KT 1200 0500SE R12/1600U R30/P2000U BCFG NSC 11/11 Q1014 BECMG 0300 FG
LYBT - Beograd / Batajnica, Srbija
Ažurirano: 26/10/2020 01:30
Mist, Delimično oblačno
Mist, Delimično oblačno
 Pravac vetra I
Vetar: I 6 km/h
Temperatura: 9°C
Tačka rose: 9°C
Vlažnost: 100%
Pritisak: 1014 hPa
Pregled: Mist
Oblaci: Partly Cloudy
Vidljivost: 2 km
2020/10/26 00:30 LYBT 260030Z 09003KT 1500 BR NSC 09/09 Q1014 NOSIG
LYVR - Vršac, Srbija
Ažurirano: 26/10/2020 01:30
Oblačno
Oblačno
 Pravac vetra JJZ
Vetar: JJZ 6 km/h
Temperatura: 13°C
Tačka rose: 12°C
Vlažnost: 94%
Pritisak: 1014 hPa
Oblaci: Oblačno
Vidljivost: 10 km
Cloud details: Few Clouds 914 m
Oblačno 1158 m
2020/10/26 00:30 LYVR 260030Z AUTO 20003KT 9999 FEW030/// OVC038/// 13/12 Q1014
 
LYKV - Lađevci, Srbija
Ažurirano: 26/10/2020 01:30
Mist, Delimično oblačno
Mist, Delimično oblačno
 Pravac vetra varies
Vetar: varies 4 km/h
Temperatura: 10°C
Tačka rose: 10°C
Vlažnost: 100%
Pritisak: 1015 hPa
Pregled: Mist
Oblaci: Partly Cloudy
Vidljivost: 5 km
2020/10/26 00:30 LYKV 260030Z VRB02KT 5000 BR NSC 10/10 Q1015 NOSIG
LYNI - Niš, Srbija
Ažurirano: 26/10/2020 01:30
Magla, Oblačno
Magla, Oblačno
 Pravac vetra varies
Vetar: varies 4 km/h
Temperatura: 11°C
Tačka rose: 11°C
Vlažnost: 100%
Pritisak: 1015 hPa
Pregled: Magla
Oblaci: Oblačno
Vidljivost: 1 km
Cloud details: Oblačno 61 m
2020/10/26 00:30 LYNI 260030Z VRB02KT 0500 R29/1000D R11/0750D FG VV002 11/11 Q1015 NOSIG
BKPR - Priština, Srbija
Ažurirano: 26/10/2020 01:30
Few Clouds
Few Clouds
 Pravac vetra varies
Vetar: varies 6 km/h
Temperatura: 7°C
Tačka rose: 4°C
Vlažnost: 81%
Pritisak: 1016 hPa
Oblaci: Few Clouds
Vidljivost: 10 km
Cloud details: Few Clouds 2438 m
2020/10/26 00:30 BKPR 260030Z VRB03KT 9999 FEW080 07/04 Q1016 NOSIG
 
LHPP - Pecs / Pogany, Hungary
Ažurirano: 25/10/2020 17:45
NOT Current
Mist, Oblačno
Mist, Oblačno
 Pravac vetra Z
Vetar: Z 6 km/h
Temperatura: 12°C
Tačka rose: 12°C
Vlažnost: 100%
Pritisak: 1013 hPa
Pregled: Mist
Oblaci: Oblačno
Vidljivost: 2 km
Cloud details: Oblačno 122 m
2020/10/25 16:45 LHPP 251645Z 28003KT 2000 BR OVC004 12/12 Q1013
LHUD - Szeged, Hungary
Ažurirano: 04/07/2019 01:45
NOT Current
Vedro
Vedro
 Pravac vetra S
Vetar: S 7 km/h
Temperatura: 18°C
Tačka rose: 13°C
Vlažnost: 73%
Pritisak: 1019 hPa
Pregled: Vedro
Vidljivost: greater than 10 km
2019/07/03 23:45 LHUD 032345Z 35004KT CAVOK 18/13 Q1019
LRTR - Timisoara, Romania
Ažurirano: 26/10/2020 01:30
Oblačno
Oblačno
 Pravac vetra IJI
Vetar: IJI 6 km/h
Temperatura: 12°C
Tačka rose: 12°C
Vlažnost: 100%
Pritisak: 1014 hPa
Oblaci: Oblačno
Vidljivost: 6 km
Cloud details: Mostly Cloudy 305 m
Oblačno 1189 m
2020/10/26 00:30 LRTR 260030Z 11003KT 6000 BKN010 OVC039 12/12 Q1014 R11/290095 BECMG 5000 BR
 
LRCV - Craiova, Romania
Ažurirano: 26/10/2020 01:30
Mist, Delimično oblačno
Mist, Delimično oblačno
 Pravac vetra ZJZ
Vetar: ZJZ 7 km/h
Temperatura: 12°C
Tačka rose: 11°C
Vlažnost: 94%
Pritisak: 1013 hPa
Pregled: Mist
Oblaci: Partly Cloudy
Vidljivost: 3 km
2020/10/26 00:30 LRCV 260030Z 25004KT 3000 BR NSC 12/11 Q1013 R09/29//95
LBSF - Sofia, Bulgaria
Ažurirano: 26/10/2020 01:30
Mist, Oblačno
Mist, Oblačno
 Pravac vetra JJZ
Vetar: JJZ 6 km/h
Temperatura: 10°C
Tačka rose: 9°C
Vlažnost: 94%
Pritisak: 1015 hPa
Pregled: Mist
Oblaci: Oblačno
Vidljivost: 5 km
Cloud details: Partly Cloudy 945 m
Mostly Cloudy 1189 m
Oblačno 1829 m
2020/10/26 00:30 LBSF 260030Z 21003KT 5000 BR SCT031 BKN039 OVC060 10/09 Q1015 TEMPO 3000 BR
LWSK - Skoplje, Makedonija
Ažurirano: 26/10/2020 01:30
Oblačno
Oblačno
 Pravac vetra calm
Vetar: Tišina
Temperatura: 10°C
Tačka rose: 9°C
Vlažnost: 94%
Pritisak: 1016 hPa
Oblaci: Oblačno
Vidljivost: 10 km
Cloud details: Partly Cloudy 152 m
Oblačno 213 m
2020/10/26 00:30 LWSK 260030Z 00000KT 9999 SCT005 OVC007 10/09 Q1016 NOSIG
 
LYPG - Podgorica, Crna Gora
Ažurirano: 26/10/2020 01:30
Mostly Cloudy
Mostly Cloudy
 Pravac vetra varies
Vetar: varies 2 km/h
Temperatura: 13°C
Tačka rose: 12°C
Vlažnost: 94%
Pritisak: 1017 hPa
Oblaci: Mostly Cloudy
Vidljivost: 10 km
Cloud details: Partly Cloudy 1219 m
Mostly Cloudy 2438 m
2020/10/26 00:30 LYPG 260030Z VRB01KT 9999 SCT040 BKN080 13/12 Q1017 NOSIG
LQSA - Sarajevo, Bosna i Hercegovina
Ažurirano: 26/10/2020 01:00
Mist, Delimično oblačno
Mist, Delimično oblačno
 Pravac vetra varies
Vetar: varies 2 km/h
Temperatura: 5°C
Tačka rose: 5°C
Vlažnost: 100%
Pritisak: 1015 hPa
Pregled: Mist
Oblaci: Partly Cloudy
Vidljivost: 4 km
Cloud details: Partly Cloudy 305 m
2020/10/26 00:00 LQSA 260000Z VRB01KT 4000 BR SCT010 05/05 Q1015
LDOS - Osijek, Hrvatksa
Ažurirano: 26/10/2020 01:30
Magla, Oblačno
Magla, Oblačno
 Pravac vetra IJI
Vetar: IJI 7 km/h
Temperatura: 10°C
Osećaj hladnoće: 9°C
Tačka rose: 10°C
Vlažnost: 100%
Pritisak: 1013 hPa
Pregled: Magla
Oblaci: Oblačno
Vidljivost: 0 km
Cloud details: Oblačno 61 m
2020/10/26 00:30 LDOS 260030Z 11004KT 0100 FG VV002 10/10 Q1013